• Join FlightAware (Why Join?)
  • Login
  • US Flag 
08:12AM EDT


 

Airport Tracker/Info


-or-


 

Live Flight TrackerFlight Track Log ✈ N516QS ✈ 16-Jul-2013 ✈ KJAC - KAPA

Flight Track Log - Related Links

Times and Time Zones

All times are in EDT time to prevent confusion due to time zone crossing. See the N516QS flight status page for this flight to view local times or setup timezone preferences in your user account.

Time Position Orientation Groundspeed Altitude Reporting Facility
EDT Latitude Longitude Course Direction KTS MPH feet Rate Location/Type
02:35PM 43.5822 -110.7514 136° Southeast 191 220 7,900  Level Salt Lake Center
02:36PM 43.5244 -110.7914 207° Southwest 228 262 10,400 3,060 Climbing Salt Lake Center
02:37PM 43.4267 -110.8461 202° Southwest 312 359 14,300 3,240 Climbing Salt Lake Center
02:38PM 43.0068 -110.7033 136° Southeast  Level FlightAware Approximate
02:38PM 43.3350 -110.8072 163° South 357 411 17,100  Level Salt Lake Center
02:39PM 42.9236 -110.5853 132° Southeast  Level FlightAware Approximate
02:39PM 43.2681 -110.6939 129° Southeast 387 445 19,700  Level Salt Lake Center
02:40PM 42.8414 -110.4662 136° Southeast  Level FlightAware Approximate
02:40PM 43.1936 -110.5603 127° Southeast 407 468 22,600  Level Salt Lake Center
02:41PM 43.1228 -110.4358 128° Southeast 429 494 25,000 2,460 Climbing Salt Lake Center
02:42PM 43.0375 -110.2822 127° Southeast 452 520 27,700 2,340 Climbing Salt Lake Center
02:43PM 42.9622 -110.1464 127° Southeast 467 537 29,900 2,460 Climbing Salt Lake Center
02:44PM 42.8711 -109.9872 128° Southeast 475 547 32,800 2,460 Climbing Salt Lake Center
02:45PM 42.7878 -109.8397 128° Southeast 472 543 35,000 1,020 Climbing Salt Lake Center
02:46PM 42.7047 -109.6958 128° Southeast 499 574 35,000  Level Salt Lake Center
02:47PM 42.6044 -109.5211 128° Southeast 519 597 35,000  Level Salt Lake Center
02:48PM 42.5189 -109.3725 128° Southeast 522 601 35,000  Level Salt Lake Center
02:50PM 42.4336 -109.2258 128° Southeast 519 597 35,000  Level Salt Lake Center
02:51PM 42.3342 -109.0553 128° Southeast 516 594 35,000  Level Salt Lake Center
02:52PM 42.2494 -108.9103 128° Southeast 514 592 35,000  Level Salt Lake Center
02:53PM 42.1506 -108.7417 128° Southeast 511 588 35,000  Level Salt Lake Center
02:54PM 42.0658 -108.5989 129° Southeast 509 586 35,000  Level Salt Lake Center
02:55PM 41.9667 -108.4331 129° Southeast 507 583 35,000  Level Salt Lake Center
02:56PM 41.8817 -108.2917 129° Southeast 507 583 35,000  Level Salt Lake Center
02:56PM 41.8381 -108.2175 128° Southeast 505 581 35,000  Level Denver Center
02:57PM 41.7386 -108.0533 129° Southeast 506 582 35,000  Level Denver Center
02:58PM 41.6969 -107.9864 130° Southeast 505 581 35,000  Level Salt Lake Center
02:59PM 41.6119 -107.8464 129° Southeast 505 581 35,000  Level Salt Lake Center
02:59PM 41.5550 -107.7511 129° Southeast 504 580 35,000  Level Denver Center
03:00PM 41.4700 -107.6131 129° Southeast 502 578 35,000  Level Denver Center
03:01PM 41.3703 -107.4519 129° Southeast 504 580 35,000  Level Denver Center
03:02PM 41.2856 -107.3161 130° Southeast 500 575 35,000  Level Denver Center
03:04PM 41.1964 -107.1508 126° Southeast 493 567 35,000  Level Denver Center
03:05PM 41.1258 -107.0031 122° Southeast 493 567 35,000  Level Denver Center
03:06PM 41.0425 -106.8325 123° Southeast 494 568 35,000  Level Denver Center
03:07PM 40.9478 -106.6342 122° Southeast 499 574 35,000  Level Denver Center
03:08PM 40.8778 -106.4864 122° Southeast 497 572 35,000 -660 Level Denver Center
03:09PM 40.8044 -106.3408 124° Southeast 498 573 33,700 -1,800 Descending Denver Center
03:10PM 40.7208 -106.1683 123° Southeast 479 551 31,300 -2,040 Descending Denver Center
03:11PM 40.6583 -106.0397 123° Southeast 471 542 29,500 -1,800 Descending Denver Center
03:12PM 40.5883 -105.8992 123° Southeast 462 532 27,600 -2,040 Descending Denver Center
03:13PM 40.5056 -105.7350 124° Southeast 452 520 25,300 -2,040 Descending Denver Center
03:14PM 40.4408 -105.6036 123° Southeast 437 503 23,400 -1,860 Descending Denver Center
03:15PM 40.3761 -105.4775 124° Southeast 424 488 21,500 -1,980 Descending Denver Center
03:16PM 40.2942 -105.3683 135° Southeast 392 451 19,400 -1,860 Descending Denver Center
03:17PM 40.1892 -105.3228 162° South 391 450 17,700 -2,040 Descending Denver Center
03:18PM 40.0775 -105.2772 163° South 389 448 15,200 -2,340 Descending Denver Center
03:19PM 39.9800 -105.2364 162° South 371 427 12,900 -2,400 Descending Denver Center
03:20PM 39.8836 -105.1931 161° South 340 391 10,300 -1,500 Descending Denver Center
03:21PM 39.8192 -105.1433 149° Southeast 272 313 9,800 -1,020 Descending Denver Center
03:22PM 39.7642 -105.0764 137° Southeast 254 292 8,300 -900 Descending Denver Center
03:23PM 39.7264 -105.0100 126° Southeast 229 264 8,000 -240 Descending Denver Center
03:24PM 39.6964 -104.9411 119° Southeast 203 234 7,900 -540 Descending Denver Center
03:25PM 39.6639 -104.8861 127° Southeast 194 223 7,000 -600 Descending Denver Center
03:26PM 39.6289 -104.8531 144° Southeast 143 165 6,700 -540 Descending Denver Center
03:27PM 39.5942 -104.8522 179° South 124 143 6,000 -720 Descending Denver Center
03:30PM 39.5667 -104.8333 155° Southeast  Level FlightAware Approximate
03:37PM 39.5701 -104.8493 155° Southeast  Level Estimated